McKean County Weather on FaceBook
Current Metar reports for airports in our Region

Nearby METAR Reports

Metar reports(Meteorological Terminal Aviation Routine) are mainly used by pilots for information on what is happening at their destination during their pre-flight weather briefings and by meteorologists to assist in short term forecasts. A raw Metar is one of the most universal ways to communicate weather information in the world and are usually transmitted by airports, but some come from permanent sanctioned weather observatories.

Listed below are Metars from airports within 100 miles of our station here in Smethport Pa. The first one of course is the Bradford Regional Airport, then the Olean NY airport and so on. Each airport has it's own table to display it's data and at the bottom of the table is 'Raw' Metar for each airport. Most pilots and weather forecasters can look at the raw data and tell you what is up, but we use a script that handles all of the details for us.

KBFD - Bradford, Pennsylvania, USA
Distance from station: NW 7mi, 11km
Updated: Wed, 28-Oct-2020 4:53am EDT
NOT Current
Light rain, Mist, Overcast
Light rain, Mist, Overcast
 Wind from calm
Wind: Calm
Temperature: 43°F , 6°C
Dew Point: 39°F , 4°C
Humidity: 87%
Barometer: 30.01 inHg , 1016.3 hPa
Summary: Light rain, Mist
Clouds: Overcast
Visibility: 3 miles , 5 km
Cloud details: Overcast 300 ft
2020/10/28 08:53 KBFD 280853Z AUTO 00000KT 3SM -RA BR OVC003 06/04 A3001 RMK AO2 SLP170 P0002 60005 T00610044 56018 $
KOLE - Olean, New York, USA
Distance from station: NNE 37mi, 59km
Updated: Wed, 28-Oct-2020 5:35am EDT
NOT Current
Fog, Overcast
Fog, Overcast
 Wind from calm
Wind: Calm
Temperature: 36°F , 2°C
Dew Point: 36°F , 2°C
Humidity: 100%
Barometer: 30.00 inHg , 1015.9 hPa
Summary: Fog
Clouds: Overcast
Visibility: 1/4 mile , 0.4 km
Cloud details: Overcast 200 ft
2020/10/28 09:35 KOLE 280935Z AUTO 00000KT 1/4SM FG OVC002 02/02 A3000 RMK AO2
 
KELZ - Wellsville, New York, USA
Distance from station: NE 40mi, 64km
Updated: Wed, 28-Oct-2020 5:34am EDT
NOT Current
Light rain, Fog, Overcast
Light rain, Fog, Overcast
 Wind from calm
Wind: Calm
Temperature: 39°F , 4°C
Dew Point: 39°F , 4°C
Humidity: 100%
Barometer: 30.02 inHg , 1016.6 hPa
Summary: Light rain, Fog
Clouds: Overcast
Visibility: 1/2 mile , 0.8 km
Cloud details: Few Clouds 500 ft
Overcast 1800 ft
2020/10/28 09:34 KELZ 280934Z AUTO 00000KT 1/2SM -RA FG FEW005 OVC018 04/04 A3002 RMK AO2 P0001 T00390039
KDUJ - Du Bois, Pennsylvania, USA
Distance from station: SSW 42mi, 68km
Updated: Wed, 28-Oct-2020 4:53am EDT
NOT Current
Mist, Overcast
Mist, Overcast
 Wind from W
Wind: W 6 mph , 9 km/h
Temperature: 46°F , 8°C
Wind Chill: 43°F , 6°C
Dew Point: 45°F , 7°C
Humidity: 93%
Barometer: 30.02 inHg , 1016.6 hPa
Summary: Mist
Clouds: Overcast
Visibility: 3 miles , 5 km
Cloud details: Overcast 200 ft
2020/10/28 08:53 KDUJ 280853Z AUTO 26005KT 3SM BR OVC002 08/07 A3002 RMK AO2 SLP171 60004 T00780067 58007
 
KJHW - Jamestown, New York, USA
Distance from station: NW 46mi, 75km
Updated: Wed, 28-Oct-2020 5:44am EDT
NOT Current
Light rain, Fog, Overcast
Light rain, Fog, Overcast
 Wind from S
Wind: S 3 mph , 6 km/h
Temperature: 39°F , 4°C
Dew Point: 39°F , 4°C
Humidity: 100%
Barometer: 30.01 inHg , 1016.3 hPa
Summary: Light rain, Fog
Clouds: Overcast
Visibility: 1/2 mile , 0.8 km
Cloud details: Overcast 300 ft
2020/10/28 09:44 KJHW 280944Z AUTO 18003KT 1/2SM -RA FG OVC003 04/04 A3001 RMK AO2 P0000 RVRNO
KFIG - Clearfield, Pennsylvania, USA
Distance from station: S 47mi, 75km
Updated: Wed, 28-Oct-2020 5:38am EDT
NOT Current
Light rain, Mist, Overcast
Light rain, Mist, Overcast
 Wind from S
Wind: S 3 mph , 6 km/h
Temperature: 46°F , 8°C
Dew Point: 45°F , 7°C
Humidity: 93%
Barometer: 30.03 inHg , 1016.9 hPa
Summary: Light rain, Mist
Clouds: Overcast
Visibility: 1 3/4 miles , 2.8 km
Cloud details: Mostly Cloudy 600 ft
Overcast 1500 ft
2020/10/28 09:38 KFIG 280938Z AUTO 19003KT 1 3/4SM -RA BR BKN006 OVC015 08/07 A3003 RMK AO2 P0003 T00830072
 
KDKK - Dunkirk, New York, USA
Distance from station: NW 66mi, 106km
Updated: Wed, 28-Oct-2020 5:18am EDT
NOT Current
Mist, Overcast
Mist, Overcast
 Wind from calm
Wind: Calm
Temperature: 45°F , 7°C
Dew Point: 43°F , 6°C
Humidity: 93%
Barometer: 30.04 inHg , 1017.3 hPa
Summary: Mist
Clouds: Overcast
Visibility: 4 miles , 6 km
Cloud details: Mostly Cloudy 600 ft
Overcast 1300 ft
2020/10/28 09:18 KDKK 280918Z AUTO 00000KT 4SM BR BKN006 OVC013 07/06 A3004 RMK AO2 T00670061 $
KUNV - State College, Pennsylvania, USA
Distance from station: SSE 71mi, 114km
Updated: Wed, 28-Oct-2020 4:55am EDT
NOT Current
Light rain, Overcast
Light rain, Overcast
 Wind from calm
Wind: Calm
Temperature: 46°F , 8°C
Dew Point: 46°F , 8°C
Humidity: 100%
Barometer: 30.03 inHg , 1016.9 hPa
Summary: Light Rain
Clouds: Overcast
Visibility: 5 miles , 8 km
Cloud details: Partly Cloudy 400 ft
Mostly Cloudy 1100 ft
Overcast 2300 ft
2020/10/28 08:55 KUNV 280855Z AUTO 00000KT 5SM -RA SCT004 BKN011 OVC023 08/08 A3003 RMK AO2 60007 T00840084
 
KFKL - Franklin, Pennsylvania, USA
Distance from station: WSW 72mi, 116km
Updated: Wed, 28-Oct-2020 5:32am EDT
NOT Current
Light rain, Mist, Overcast
Light rain, Mist, Overcast
 Wind from WSW
Wind: WSW 6 mph , 9 km/h
Temperature: 43°F , 6°C
Wind Chill: 39°F , 4°C
Dew Point: 43°F , 6°C
Humidity: 100%
Barometer: 30.05 inHg , 1017.6 hPa
Summary: Light rain, Mist
Clouds: Overcast
Visibility: 3 miles , 5 km
Cloud details: Overcast 200 ft
2020/10/28 09:32 KFKL 280932Z AUTO 25005KT 3SM -RA BR OVC002 06/06 A3005 RMK AO2 P0002
KDSV - Dansville, New York, USA
Distance from station: NE 73mi, 117km
Updated: Wed, 28-Oct-2020 5:25am EDT
NOT Current
Overcast
Overcast
 Wind from calm
Wind: Calm
Temperature: 45°F , 7°C
Dew Point: 39°F , 4°C
Humidity: 81%
Barometer: 30.04 inHg , 1017.3 hPa
Clouds: Overcast
Visibility: 10 miles , 16 km
Cloud details: Partly Cloudy 400 ft
Overcast 2100 ft
2020/10/28 09:25 KDSV 280925Z AUTO 00000KT 10SM SCT004 OVC021 07/04 A3004 RMK AO2 T00670044
 
KIDI - Indiana/Stewart, Pennsylvania, USA
Distance from station: SSW 81mi, 130km
Updated: Wed, 28-Oct-2020 5:35am EDT
NOT Current
Mist, Overcast
Mist, Overcast
 Wind from W
Wind: W 7 mph , 11 km/h
Temperature: 50°F , 10°C
Wind Chill: 47°F , 8°C
Dew Point: 50°F , 10°C
Humidity: 100%
Barometer: 30.08 inHg , 1018.6 hPa
Summary: Mist
Clouds: Overcast
Visibility: 2 miles , 3 km
Cloud details: Overcast 400 ft
2020/10/28 09:35 KIDI 280935Z AUTO 26006KT 2SM BR OVC004 10/10 A3008 RMK A01
KBUF - Buffalo/Cheektow, New York, USA
Distance from station: N 84mi, 136km
Updated: Wed, 28-Oct-2020 4:54am EDT
NOT Current
Light drizzle, Overcast
Light drizzle, Overcast
 Wind from calm
Wind: Calm
Temperature: 41°F , 5°C
Dew Point: 37°F , 3°C
Humidity: 87%
Barometer: 30.04 inHg , 1017.3 hPa
Summary: Light Drizzle
Clouds: Overcast
Visibility: 10 miles , 16 km
Cloud details: Overcast 1700 ft
2020/10/28 08:54 KBUF 280854Z 00000KT 10SM -DZ OVC017 05/03 A3004 RMK AO2 SLP179 P0000 60002 T00500028 58016
 
KGKJ - Meadville, Pennsylvania, USA
Distance from station: W 86mi, 138km
Updated: Wed, 28-Oct-2020 5:16am EDT
NOT Current
Light rain, Mist, Overcast
Light rain, Mist, Overcast
 Wind from SW
Wind: SW 5 mph , 7 km/h
Temperature: 43°F , 6°C
Wind Chill: 40°F , 4°C
Dew Point: 39°F , 4°C
Humidity: 87%
Barometer: 30.04 inHg , 1017.3 hPa
Summary: Light rain, Mist
Clouds: Overcast
Visibility: 2 1/2 miles , 4 km
Cloud details: Overcast 200 ft
2020/10/28 09:16 KGKJ 280916Z AUTO 23004KT 2 1/2SM -RA BR OVC002 06/04 A3004 RMK AO2 P0000 T00560044
KERI - Erie, Pennsylvania, USA
Distance from station: WNW 87mi, 140km
Updated: Wed, 28-Oct-2020 5:11am EDT
NOT Current
Overcast
Overcast
 Wind from SSW
Wind: SSW 6 mph , 9 km/h
Temperature: 45°F , 7°C
Wind Chill: 42°F , 6°C
Dew Point: 43°F , 6°C
Humidity: 93%
Barometer: 30.04 inHg , 1017.3 hPa
Clouds: Overcast
Visibility: 10 miles , 16 km
Cloud details: Few Clouds 1000 ft
Mostly Cloudy 3500 ft
Overcast 5000 ft
2020/10/28 09:11 KERI 280911Z AUTO 20005KT 10SM FEW010 BKN035 OVC050 07/06 A3004 RMK AO2 T00720056
 
KELM - Elmira, New York, USA
Distance from station: ENE 90mi, 145km
Updated: Wed, 28-Oct-2020 5:40am EDT
NOT Current
Light rain, Mist, Overcast
Light rain, Mist, Overcast
 Wind from calm
Wind: Calm
Temperature: 45°F , 7°C
Dew Point: 45°F , 7°C
Humidity: 100%
Barometer: 30.04 inHg , 1017.3 hPa
Summary: Light rain, Mist
Clouds: Overcast
Visibility: 3 miles , 5 km
Cloud details: Partly Cloudy 700 ft
Overcast 1800 ft
2020/10/28 09:40 KELM 280940Z AUTO 00000KT 3SM -RA BR SCT007 OVC018 07/07 A3004 RMK AO2 P0004 T00720067
KIPT - Williamsport, Pennsylvania, USA
Distance from station: ESE 91mi, 146km
Updated: Wed, 28-Oct-2020 4:54am EDT
NOT Current
Overcast
Overcast
 Wind from calm
Wind: Calm
Temperature: 48°F , 9°C
Dew Point: 46°F , 8°C
Humidity: 94%
Barometer: 30.03 inHg , 1016.9 hPa
Clouds: Overcast
Visibility: 10 miles , 16 km
Cloud details: Overcast 900 ft
2020/10/28 08:54 KIPT 280854Z AUTO 00000KT 10SM OVC009 09/08 A3003 RMK AO2 RAE26 SLP169 P0002 60010 T00940078 56025
 
KBTP - Butler Co., Pennsylvania, USA
Distance from station: SW 98mi, 157km
Updated: Wed, 28-Oct-2020 5:41am EDT
NOT Current
Light rain, Mist, Overcast
Light rain, Mist, Overcast
 Wind from SW
Wind: SW 6 mph , 9 km/h
Temperature: 46°F , 8°C
Wind Chill: 43°F , 6°C
Dew Point: 46°F , 8°C
Humidity: 100%
Barometer: 30.07 inHg , 1018.3 hPa
Summary: Light rain, Mist
Clouds: Overcast
Visibility: 2 1/2 miles , 4 km
Cloud details: Overcast 300 ft
2020/10/28 09:41 KBTP 280941Z AUTO 23005KT 2 1/2SM -RA BR OVC003 08/08 A3007 RMK AO2 PNO $
KAOO - Altoona, Pennsylvania, USA
Distance from station: S 99mi, 159km
Updated: Wed, 28-Oct-2020 5:36am EDT
NOT Current
Mist, Overcast
Mist, Overcast
 Wind from WNW
Wind: WNW 3 mph , 6 km/h
Temperature: 50°F , 10°C
Dew Point: 48°F , 9°C
Humidity: 94%
Barometer: 30.03 inHg , 1016.9 hPa
Summary: Mist
Clouds: Overcast
Visibility: 2 miles , 3 km
Cloud details: Few Clouds 200 ft
Mostly Cloudy 1000 ft
Overcast 1400 ft
2020/10/28 09:36 KAOO 280936Z AUTO 29003KT 2SM BR FEW002 BKN010 OVC014 10/09 A3003 RMK AO2 RAE0854B07E23 P0000 T01000089
 
KPIT - Pittsburg, Pennsylvania, USA
Distance from station: SSW 126mi, 203km
Updated: Wed, 28-Oct-2020 4:51am EDT
NOT Current
Light rain, Mist, Overcast
Light rain, Mist, Overcast
 Wind from SSW
Wind: SSW 5 mph , 7 km/h
Temperature: 48°F , 9°C
Wind Chill: 46°F , 8°C
Dew Point: 46°F , 8°C
Humidity: 94%
Barometer: 30.04 inHg , 1017.3 hPa
Summary: Light rain, Mist
Clouds: Overcast
Visibility: 2 1/2 miles , 4 km
Cloud details: Overcast 400 ft
2020/10/28 08:51 KPIT 280851Z 21004KT 2 1/2SM -RA BR OVC004 09/08 A3004 RMK AO2 SFC VIS 3 SLP182 P0002 60004 T00890083 58013
KCLE - Cleveland, Ohio, USA
Distance from station: WSW 160mi, 258km
Updated: Wed, 28-Oct-2020 4:51am EDT
NOT Current
Light rain, Overcast
Light rain, Overcast
 Wind from WSW
Wind: WSW 7 mph , 11 km/h
Temperature: 45°F , 7°C
Wind Chill: 41°F , 5°C
Dew Point: 43°F , 6°C
Humidity: 93%
Barometer: 30.05 inHg , 1017.6 hPa
Summary: Light Rain
Clouds: Overcast
Visibility: 9 miles , 14 km
Cloud details: Mostly Cloudy 600 ft
Mostly Cloudy 1000 ft
Overcast 1800 ft
2020/10/28 08:51 KCLE 280851Z 24006KT 9SM -RA BKN006 BKN010 OVC018 07/06 A3005 RMK AO2 SLP196 P0002 60006 T00670061 58010